Overview Statistics Trail Chart Weather Telemetry Raw packets
 

This is the latest recevied weather packets stored in our database for station/object IW2NIA-3. If no packets are shown the sender has not sent any weather packets the latest 10 day(s).

<< 22 23 24 25 26 27 28 >>
Time Temp. Humidity Pressure Rain* Wind** Luminosity Snow
1788130116 22.78° C 70% 1015 hPa 0 mm - - -
1788129214 23.33° C 70% 1015 hPa 0 mm - - -
1788128314 22.78° C 72% 1014.9 hPa 0 mm - - -
1788127424 22.78° C 72% 1014.9 hPa 0 mm - - -
1788126518 22.22° C 74% 1014.8 hPa 0 mm - - -
1788125611 22.22° C 74% 1014.7 hPa 0 mm - - -
1788124727 22.22° C 74% 1014.6 hPa 0 mm - - -
1788123818 22.22° C 74% 1014.6 hPa 0 mm - - -
1788122920 22.22° C 74% 1014.6 hPa 0 mm - - -
1788122020 22.78° C 74% 1014.6 hPa 0 mm - - -
1788121122 22.78° C 74% 1014.5 hPa 0 mm - - -
1788120218 23.33° C 74% 1014.4 hPa 0 mm - - -
1788119322 23.33° C 74% 1014.4 hPa 0 mm - - -
1788118427 23.33° C 74% 1014.2 hPa 0 mm - - -
1788117523 23.89° C 74% 1014.2 hPa 0 mm - - -
1788116620 24.44° C 74% 1014.2 hPa 0 mm - - -
1788115709 25° C 70% 1014 hPa 0 mm - - -
1788114828 25.56° C 68% 1013.9 hPa 0 mm - - -
1788113920 26.11° C 64% 1013.7 hPa 0 mm - - -
1788113018 26.67° C 61% 1013.6 hPa 0 mm - - -
1788112113 27.22° C 59% 1013.5 hPa 0 mm - - -
1788111211 28.33° C 53% 1013.4 hPa 0 mm - - -
1788110313 28.33° C 47% 1013.4 hPa 0 mm - - -
1788109410 28.89° C 47% 1013.3 hPa 0 mm - - -
1788108522 28.89° C 46% 1013.4 hPa 0 mm - - -

* Rain latest hour (hover to see other rain measurements)
** Current wind speed in m/s (hover to see current wind gust speed)